Time;durP1;ratioP1;P1;durP2;ratioP2;P2;SDS_P1;SDS_P2;PMS_P1;PMS_P2;Temp;Humidity;BMP_temperature;BMP_pressure;BME280_temperature;BME280_humidity;BME280_pressure;Samples;Min_cycle;Max_cycle;Signal;HPM_P1;HPM_P2
2023/10/11 00:01:48;;;;;;;29.48;13.75;;;;;;;17.04;100.00;101215.56;5049786;28;20116;-51
2023/10/11 00:04:26;;;;;;;27.35;13.60;;;;;;;17.06;100.00;101207.47;5048804;28;20033;-50
2023/10/11 00:06:54;;;;;;;30.33;12.82;;;;;;;16.78;100.00;101154.91;5047877;28;20444;-49
2023/10/11 00:09:34;;;;;;;27.33;13.85;;;;;;;17.09;100.00;101208.19;5032339;28;20025;-45
2023/10/11 00:12:04;;;;;;;26.35;12.50;;;;;;;17.14;100.00;101222.09;5034336;28;20052;-49
2023/10/11 00:14:39;;;;;;;28.70;14.13;;;;;;;17.10;100.00;101231.19;5034194;28;20030;-46
2023/10/11 00:17:05;;;;;;;28.27;13.20;;;;;;;16.78;100.00;101174.34;5033996;28;20053;-48
2023/10/11 00:19:33;;;;;;;28.23;12.55;;;;;;;16.74;100.00;101153.34;5033470;28;20041;-46
2023/10/11 00:21:58;;;;;;;26.20;12.73;;;;;;;16.68;100.00;101159.00;5033943;28;20029;-48
2023/10/11 00:24:24;;;;;;;27.00;12.75;;;;;;;17.09;100.00;101225.94;5033708;28;20111;-47
2023/10/11 00:26:50;;;;;;;28.52;13.52;;;;;;;17.05;100.00;101222.56;5030512;28;20061;-52
2023/10/11 00:29:16;;;;;;;31.63;13.23;;;;;;;17.06;100.00;101224.31;5033561;28;20485;-52
2023/10/11 00:31:41;;;;;;;27.08;13.23;;;;;;;17.09;100.00;101221.47;5033552;28;20060;-50
2023/10/11 00:34:12;;;;;;;24.52;11.95;;;;;;;16.81;100.00;101174.19;5033301;28;20034;-48
2023/10/11 00:36:39;;;;;;;24.27;12.10;;;;;;;17.07;100.00;101218.06;5032220;28;20445;-50
2023/10/11 00:39:07;;;;;;;30.00;13.65;;;;;;;16.57;100.00;101118.84;5033521;28;20025;-48
2023/10/11 00:41:39;;;;;;;26.02;13.38;;;;;;;16.68;100.00;101135.06;5031910;28;20064;-46
2023/10/11 00:44:05;;;;;;;30.27;13.57;;;;;;;17.11;100.00;101210.75;5033522;28;20385;-52
2023/10/11 00:46:37;;;;;;;26.38;13.43;;;;;;;17.11;100.00;101200.97;5033512;28;20043;-48
2023/10/11 00:49:09;;;;;;;25.52;13.48;;;;;;;16.90;100.00;101174.69;5033223;28;20488;-46
2023/10/11 00:51:36;;;;;;;27.25;14.55;;;;;;;16.64;100.00;101120.22;5032144;28;20045;-47
2023/10/11 00:54:04;;;;;;;27.08;13.95;;;;;;;17.04;100.00;101182.78;5033427;28;20107;-48
2023/10/11 00:56:33;;;;;;;26.60;13.85;;;;;;;16.67;100.00;101136.84;5032187;28;20113;-48
2023/10/11 00:59:14;;;;;;;32.42;13.30;;;;;;;16.90;100.00;101188.81;5031772;28;20488;-48
2023/10/11 01:01:42;;;;;;;26.13;13.38;;;;;;;16.57;100.00;101134.78;5032182;28;20044;-48
2023/10/11 01:04:09;;;;;;;31.40;14.13;;;;;;;16.57;100.00;101124.16;5033015;28;20033;-47
2023/10/11 01:06:34;;;;;;;24.13;14.60;;;;;;;16.92;100.00;101200.25;5031953;28;20049;-47
2023/10/11 01:09:00;;;;;;;26.90;14.60;;;;;;;16.94;100.00;101194.81;5033201;28;20464;-47
2023/10/11 01:11:26;;;;;;;26.17;13.30;;;;;;;16.56;100.00;101130.38;5031635;28;20025;-48
2023/10/11 01:13:52;;;;;;;26.80;14.30;;;;;;;16.81;100.00;101174.19;5033074;28;20036;-48
2023/10/11 01:16:26;;;;;;;27.98;14.70;;;;;;;16.54;100.00;101135.81;5030948;28;20029;-48
2023/10/11 01:18:51;;;;;;;35.25;15.38;;;;;;;16.84;100.00;101187.34;5032652;28;20108;-48
2023/10/11 01:21:16;;;;;;;29.02;14.52;;;;;;;16.50;100.00;101122.69;5031446;28;20136;-50
2023/10/11 01:23:42;;;;;;;32.08;15.32;;;;;;;16.84;100.00;101184.69;5032985;28;20037;-50
2023/10/11 01:26:08;;;;;;;27.88;14.35;;;;;;;16.66;100.00;101152.91;5033023;28;20045;-51
2023/10/11 01:28:35;;;;;;;33.05;15.50;;;;;;;16.81;100.00;101176.84;5032658;28;20045;-51
2023/10/11 01:31:08;;;;;;;26.17;15.05;;;;;;;16.72;100.00;101166.72;5031541;28;20037;-48
2023/10/11 01:33:34;;;;;;;32.40;14.73;;;;;;;16.45;100.00;101112.31;5031182;28;20415;-47
2023/10/11 01:36:04;;;;;;;33.00;15.18;;;;;;;16.76;100.00;101168.28;5032869;28;20037;-48
2023/10/11 01:38:32;;;;;;;32.67;15.77;;;;;;;16.75;100.00;101163.88;5032592;28;20423;-49
2023/10/11 01:40:58;;;;;;;30.25;15.63;;;;;;;16.68;100.00;101145.69;5032498;28;20040;-47
2023/10/11 01:43:23;;;;;;;29.45;16.08;;;;;;;16.34;100.00;101106.72;5064553;28;20033;-49
2023/10/11 01:45:48;;;;;;;29.33;16.75;;;;;;;16.65;100.00;101159.16;5032292;28;20091;-47
2023/10/11 01:48:15;;;;;;;37.65;18.77;;;;;;;16.65;100.00;101157.34;5032400;28;20045;-50
2023/10/11 01:50:40;;;;;;;31.65;17.55;;;;;;;16.54;100.00;101140.25;5030730;28;20201;-49
2023/10/11 01:53:08;;;;;;;34.15;18.92;;;;;;;16.58;100.00;101140.00;5032402;28;20325;-48
2023/10/11 01:55:35;;;;;;;39.40;17.85;;;;;;;16.56;100.00;101131.25;5032169;28;20539;-48
2023/10/11 01:58:01;;;;;;;31.73;17.67;;;;;;;16.56;100.00;101133.91;5032102;28;20048;-49
2023/10/11 02:00:29;;;;;;;37.20;18.05;;;;;;;16.15;100.00;101053.69;5031666;28;20041;-48
2023/10/11 02:02:55;;;;;;;32.20;18.45;;;;;;;16.10;100.00;101060.16;5032029;28;20408;-49
2023/10/11 02:05:24;;;;;;;38.72;18.40;;;;;;;16.52;100.00;101134.97;5047316;28;20043;-51
2023/10/11 02:07:50;;;;;;;33.75;17.83;;;;;;;16.47;100.00;101120.19;5030299;28;20042;-48
2023/10/11 02:10:25;;;;;;;32.95;17.75;;;;;;;16.46;100.00;101121.16;5030703;28;20037;-47
2023/10/11 02:12:51;;;;;;;35.80;18.10;;;;;;;16.43;100.00;101145.22;5044241;28;20887;-47
2023/10/11 02:15:27;;;;;;;32.63;17.05;;;;;;;16.26;100.00;101107.09;5047288;28;20026;-47
2023/10/11 02:17:54;;;;;;;34.20;17.80;;;;;;;16.20;100.00;101099.44;5032219;28;20033;-52
2023/10/11 02:20:22;;;;;;;35.83;17.88;;;;;;;16.38;100.00;101124.19;5031963;28;20441;-47
2023/10/11 02:22:50;;;;;;;32.20;17.27;;;;;;;16.00;100.00;101061.56;5031723;28;20034;-49
2023/10/11 02:25:17;;;;;;;36.35;17.08;;;;;;;15.95;100.00;101056.50;5031438;28;20080;-48
2023/10/11 02:27:42;;;;;;;32.10;16.70;;;;;;;15.93;100.00;101061.03;5030603;28;20384;-48
2023/10/11 02:30:13;;;;;;;28.98;15.93;;;;;;;16.31;100.00;101126.31;5030790;28;20128;-48
2023/10/11 02:32:41;;;;;;;31.77;17.20;;;;;;;16.21;100.00;101103.81;5030608;28;20040;-49
2023/10/11 02:35:08;;;;;;;26.02;16.45;;;;;;;16.32;100.00;101120.06;5031883;28;20040;-51
2023/10/11 02:37:36;;;;;;;27.92;17.15;;;;;;;15.97;100.00;101053.75;5031742;28;20029;-50
2023/10/11 02:40:07;;;;;;;32.45;16.17;;;;;;;16.31;100.00;101118.34;5032040;28;20386;-50
2023/10/11 02:42:36;;;;;;;28.75;17.30;;;;;;;15.91;100.00;101044.31;5031427;28;20087;-46
2023/10/11 02:45:07;;;;;;;33.15;17.15;;;;;;;16.26;100.00;101107.09;5034476;28;20029;-51
2023/10/11 02:47:36;;;;;;;28.83;17.35;;;;;;;15.90;100.00;101041.75;5067241;28;20037;-49
2023/10/11 02:50:05;;;;;;;39.05;19.10;;;;;;;15.87;100.00;101042.78;5035844;28;20116;-51
2023/10/11 02:52:35;;;;;;;31.38;18.80;;;;;;;16.26;100.00;101112.41;5035836;28;20048;-51
2023/10/11 02:57:43;;;;;;;30.38;18.67;;;;;;;16.22;100.00;101107.34;5035828;28;20041;-51
2023/10/11 03:00:21;;;;;;;35.13;18.58;;;;;;;16.23;100.00;101111.69;5035483;28;20436;-48
2023/10/11 03:02:54;;;;;;;33.75;18.95;;;;;;;15.80;100.00;101029.88;5033393;28;20099;-50
2023/10/11 03:05:27;;;;;;;28.73;18.52;;;;;;;16.21;100.00;101114.44;5034080;28;20144;-49
2023/10/11 03:07:53;;;;;;;26.23;17.63;;;;;;;16.11;100.00;101086.63;5050215;28;20029;-48
2023/10/11 03:10:19;;;;;;;37.88;19.60;;;;;;;15.96;100.00;101052.94;5035361;28;20519;-50
2023/10/11 03:12:44;;;;;;;36.33;19.25;;;;;;;16.22;100.00;101092.28;5035136;28;20109;-50
2023/10/11 03:15:11;;;;;;;36.90;19.15;;;;;;;16.24;100.00;101103.66;5035175;28;20037;-49
2023/10/11 03:17:41;;;;;;;29.38;17.52;;;;;;;15.86;100.00;101038.38;5032951;28;20033;-50
2023/10/11 03:20:08;;;;;;;36.17;19.67;;;;;;;16.25;100.00;101091.25;5035303;28;20408;-51
2023/10/11 03:22:35;;;;;;;33.42;18.02;;;;;;;15.82;100.00;101020.88;5035354;28;20042;-48
2023/10/11 03:25:01;;;;;;;35.10;19.35;;;;;;;15.81;100.00;101028.94;5034799;28;20060;-51
2023/10/11 03:27:36;;;;;;;30.52;17.67;;;;;;;16.16;100.00;101108.53;5034829;28;20052;-47
2023/10/11 03:30:01;;;;;;;32.10;18.98;;;;;;;15.75;100.00;101038.94;5034111;28;20460;-49
2023/10/11 03:32:26;;;;;;;36.60;18.63;;;;;;;16.15;100.00;101108.59;5067079;28;20056;-49
2023/10/11 03:34:52;;;;;;;36.13;19.25;;;;;;;16.11;100.00;101107.88;5032921;28;20044;-52
2023/10/11 03:37:20;;;;;;;40.33;20.08;;;;;;;15.72;100.00;101035.56;5050068;28;20122;-53
2023/10/11 03:39:55;;;;;;;33.60;19.48;;;;;;;16.15;100.00;101103.28;5034292;28;20490;-53
2023/10/11 03:42:21;;;;;;;34.22;19.08;;;;;;;16.05;100.00;101080.81;5034192;28;20063;-48
2023/10/11 03:44:47;;;;;;;31.08;19.98;;;;;;;15.90;100.00;101055.88;5034922;28;20073;-49
2023/10/11 03:47:23;;;;;;;33.45;20.23;;;;;;;16.07;100.00;101089.53;5033675;28;20121;-51
2023/10/11 03:49:52;;;;;;;35.35;18.95;;;;;;;16.09;100.00;101098.28;5047163;28;20038;-50
2023/10/11 03:52:30;;;;;;;36.33;21.02;;;;;;;16.07;100.00;101098.38;5049604;28;20068;-50
2023/10/11 03:55:05;;;;;;;35.85;20.25;;;;;;;16.18;100.00;101089.84;5033262;28;20375;-47
2023/10/11 03:57:37;;;;;;;35.20;19.45;;;;;;;15.92;100.00;101034.56;5034750;28;20068;-49
2023/10/11 04:02:47;;;;;;;32.90;19.52;;;;;;;16.16;100.00;101073.13;5034593;28;20136;-51
2023/10/11 04:05:13;;;;;;;35.65;20.55;;;;;;;15.84;100.00;101013.72;5034159;28;20548;-51
2023/10/11 04:07:40;;;;;;;33.75;19.95;;;;;;;15.91;100.00;101012.47;5064926;28;20124;-52
2023/10/11 04:10:10;;;;;;;35.13;19.98;;;;;;;16.31;100.00;101090.94;5034649;28;20041;-49
2023/10/11 04:12:42;;;;;;;35.20;19.90;;;;;;;15.93;100.00;101025.66;5034110;28;20029;-51
2023/10/11 04:15:24;;;;;;;32.53;19.45;;;;;;;15.95;100.00;101018.47;5034342;28;20816;-49
2023/10/11 04:17:55;;;;;;;31.73;19.13;;;;;;;16.39;100.00;101079.91;5034115;28;20124;-54
2023/10/11 04:20:32;;;;;;;;;;;;;;;16.43;100.00;101073.50;5034663;28;20052;-50
2023/10/11 04:23:10;;;;;;;34.22;19.23;;;;;;;16.10;100.00;101013.25;5036374;28;19921;-49
2023/10/11 04:25:38;;;;;;;37.83;20.30;;;;;;;16.47;100.00;101083.88;5032372;28;20062;-48
2023/10/11 04:28:05;;;;;;;35.00;20.17;;;;;;;16.06;100.00;101001.03;5033954;28;20037;-50
2023/10/11 04:30:44;;;;;;;38.25;20.67;;;;;;;16.40;100.00;101063.03;5049398;28;20026;-51
2023/10/11 04:33:17;;;;;;;35.75;19.92;;;;;;;16.13;100.00;101015.72;5066183;28;20029;-50
2023/10/11 04:35:43;;;;;;;33.42;19.80;;;;;;;16.54;100.00;101085.31;5034115;28;20033;-52
2023/10/11 04:38:11;;;;;;;40.90;20.73;;;;;;;16.30;100.00;101041.41;5032550;28;20040;-47
2023/10/11 04:40:51;;;;;;;32.92;19.27;;;;;;;16.58;100.00;101088.66;5033633;28;20072;-48
2023/10/11 04:43:29;;;;;;;39.53;20.00;;;;;;;16.62;100.00;101095.53;5032059;28;20069;-46
2023/10/11 04:45:59;;;;;;;37.75;20.42;;;;;;;16.63;100.00;101094.59;5032613;28;20116;-48
2023/10/11 04:48:48;;;;;;;37.30;19.20;;;;;;;16.64;100.00;101091.84;5048142;28;20041;-50
2023/10/11 04:59:06;;;;;;;32.25;18.20;;;;;;;16.32;100.00;101013.81;5033550;28;20071;-48
2023/10/11 05:01:58;;;;;;;39.47;19.25;;;;;;;16.66;100.00;101067.84;5032030;28;20116;-47
2023/10/11 05:04:28;;;;;;;33.67;16.92;;;;;;;16.38;100.00;101022.38;5033066;28;20128;-50
2023/10/11 05:06:57;;;;;;;37.35;18.33;;;;;;;16.69;100.00;101063.22;5032091;28;20390;-49
2023/10/11 05:09:31;;;;;;;30.65;17.25;;;;;;;16.81;100.00;101077.66;5032178;28;20052;-51
2023/10/11 05:19:45;;;;;;;40.38;18.80;;;;;;;16.86;100.00;101073.81;5048207;28;20042;-51
2023/10/11 05:22:29;;;;;;;34.60;18.60;;;;;;;16.77;100.00;101060.16;5032909;28;20326;-50
2023/10/11 05:32:54;;;;;;;38.35;19.45;;;;;;;16.87;100.00;101090.59;5043406;28;20045;-50
2023/10/11 05:51:30;;;;;;;41.75;18.08;;;;;;;16.90;100.00;101065.66;5011400;28;20069;-49
2023/10/11 05:53:59;;;;;;;32.78;17.55;;;;;;;16.83;100.00;101059.81;5010217;28;20034;-52
2023/10/11 05:56:25;;;;;;;39.53;18.83;;;;;;;16.53;100.00;101019.78;5010702;28;20041;-50
2023/10/11 05:58:52;;;;;;;31.65;16.83;;;;;;;16.92;100.00;101079.72;5017330;28;20052;-50
2023/10/11 06:01:22;;;;;;;36.58;17.95;;;;;;;16.87;100.00;101077.28;5030900;28;20084;-52
2023/10/11 06:03:51;;;;;;;39.03;18.70;;;;;;;16.57;100.00;101017.84;5047392;28;20060;-53
2023/10/11 06:09:01;;;;;;;42.53;18.30;;;;;;;16.90;100.00;101087.75;5025192;28;20068;-52
2023/10/11 06:11:29;;;;;;;36.55;17.45;;;;;;;16.95;100.00;101076.91;5012239;28;20038;-51
2023/10/11 06:13:55;;;;;;;34.28;18.45;;;;;;;17.05;100.00;101096.72;5013533;28;20041;-49
2023/10/11 06:16:22;;;;;;;41.20;18.13;;;;;;;16.91;100.00;101067.34;5031008;28;20068;-52
2023/10/11 06:18:57;;;;;;;33.38;17.00;;;;;;;16.75;100.00;101038.94;5030319;28;20151;-52
2023/10/11 06:21:33;;;;;;;36.85;15.75;;;;;;;17.19;100.00;101096.84;5032030;28;20492;-51
2023/10/11 06:24:05;;;;;;;35.65;16.63;;;;;;;17.18;100.00;101106.59;5031868;28;20029;-53
2023/10/11 06:29:07;;;;;;;;;;;;;;;17.17;100.00;101106.69;5032131;28;20046;-48
2023/10/11 06:31:39;;;;;;;39.20;17.13;;;;;;;17.12;100.00;101116.72;5015703;28;20620;-48
2023/10/11 06:34:15;;;;;;;38.38;17.38;;;;;;;17.11;100.00;101112.31;5031898;28;20299;-47
2023/10/11 06:36:42;;;;;;;44.05;17.67;;;;;;;17.11;100.00;101097.22;5031667;28;20045;-49
2023/10/11 06:39:33;;;;;;;41.97;17.65;;;;;;;17.15;100.00;101089.94;5009988;28;20034;-49
2023/10/11 06:41:53;;;;;;;34.05;15.90;;;;;;;16.92;100.00;101053.13;5008999;28;20119;-51
2023/10/11 06:44:18;;;;;;;35.30;16.38;;;;;;;16.68;100.00;101008.34;5009581;28;20539;-48
2023/10/11 06:46:47;;;;;;;38.92;16.48;;;;;;;17.11;100.00;101088.41;5008660;28;20038;-47
2023/10/11 06:49:14;;;;;;;35.83;15.88;;;;;;;16.78;100.00;101027.31;5030012;28;20044;-49
2023/10/11 06:51:41;;;;;;;34.25;15.95;;;;;;;17.18;100.00;101095.09;5027696;28;20472;-51
2023/10/11 06:54:07;;;;;;;36.95;17.02;;;;;;;16.80;100.00;101041.38;5031095;28;20050;-49
2023/10/11 06:56:32;;;;;;;32.50;15.52;;;;;;;17.20;100.00;101094.06;5046637;28;20041;-51
2023/10/11 06:59:00;;;;;;;34.40;16.60;;;;;;;17.04;100.00;101074.59;5030666;28;20116;-50
2023/10/11 07:01:30;;;;;;;32.05;15.73;;;;;;;17.34;100.00;101117.22;5031292;28;20046;-52
2023/10/11 07:03:57;;;;;;;34.17;16.38;;;;;;;17.35;100.00;101121.63;5035993;28;20444;-50
2023/10/11 07:06:22;;;;;;;28.73;15.80;;;;;;;16.34;100.00;100921.59;5000712;28;20409;-51
2023/10/11 07:08:52;;;;;;;35.95;16.00;;;;;;;17.54;100.00;101132.97;5028259;28;20056;-48
2023/10/11 07:11:40;;;;;;;38.63;17.03;;;;;;;17.58;100.00;101137.19;5030170;28;20034;-48
2023/10/11 07:14:14;;;;;;;32.72;15.70;;;;;;;17.57;100.00;101121.31;5030219;28;20022;-48
2023/10/11 07:16:41;;;;;;;34.80;16.45;;;;;;;17.52;100.00;101100.25;5031015;28;20025;-47
2023/10/11 07:19:09;;;;;;;31.88;16.33;;;;;;;17.54;100.00;101103.69;5031238;28;20356;-47
2023/10/11 07:22:12;;;;;;;33.95;15.55;;;;;;;17.26;100.00;101061.81;5020848;28;20092;-48
2023/10/11 07:24:33;;;;;;;32.20;14.85;;;;;;;17.54;100.00;101109.00;5019462;28;20554;-48
2023/10/11 07:27:08;;;;;;;37.88;15.23;;;;;;;17.68;100.00;101133.06;5016705;28;20042;-48
2023/10/11 07:29:42;;;;;;;39.75;15.13;;;;;;;17.67;100.00;101119.84;5010271;28;20065;-50
2023/10/11 07:32:09;;;;;;;30.83;15.43;;;;;;;17.72;100.00;101123.94;5002079;28;20216;-46
2023/10/11 07:34:36;;;;;;;33.45;15.32;;;;;;;17.74;100.00;101126.53;5014820;28;20045;-51
2023/10/11 07:37:05;;;;;;;33.38;14.50;;;;;;;17.79;100.00;101129.78;5013831;28;20096;-50
2023/10/11 07:39:33;;;;;;;34.13;14.48;;;;;;;17.78;100.00;101130.72;5011948;28;20045;-50
2023/10/11 07:44:29;;;;;;;31.23;15.15;;;;;;;17.89;100.00;101134.47;5009836;28;20121;-49
2023/10/11 07:46:55;;;;;;;30.38;15.15;;;;;;;17.87;100.00;101141.72;5009334;28;20041;-48
2023/10/11 07:49:24;;;;;;;33.30;16.00;;;;;;;17.54;100.00;101079.75;5024548;28;20042;-48
2023/10/11 07:51:53;;;;;;;31.55;13.77;;;;;;;17.90;100.00;101133.53;5031815;28;20342;-48
2023/10/11 07:54:21;;;;;;;36.42;14.30;;;;;;;17.88;100.00;101146.09;5034386;28;20117;-49
2023/10/11 07:56:49;;;;;;;32.50;14.07;;;;;;;17.87;100.00;101151.50;5014137;28;20034;-46
2023/10/11 07:59:14;;;;;;;29.52;13.25;;;;;;;17.84;100.00;101152.53;5014452;28;20040;-48
2023/10/11 08:01:42;;;;;;;28.27;13.63;;;;;;;17.76;100.00;101140.59;5014268;28;20030;-51
2023/10/11 08:04:21;;;;;;;29.65;12.85;;;;;;;17.72;100.00;101141.72;5026850;28;20043;-49
2023/10/11 08:06:50;;;;;;;25.00;11.98;;;;;;;17.57;100.00;101110.69;5034313;28;20049;-48
2023/10/11 08:09:19;;;;;;;18.88;10.75;;;;;;;17.88;100.00;101150.56;5034357;28;20033;-51
2023/10/11 08:11:57;;;;;;;14.00;7.30;;;;;;;17.75;100.00;101137.09;5030761;28;20390;-55
2023/10/11 08:14:28;;;;;;;14.90;6.95;;;;;;;17.45;100.00;101099.72;5014422;28;20030;-48
2023/10/11 08:16:56;;;;;;;12.02;6.30;;;;;;;17.88;100.00;101166.53;5045960;28;20045;-49
2023/10/11 08:19:24;;;;;;;10.93;6.10;;;;;;;17.91;100.00;101142.41;5015797;28;20038;-48
2023/10/11 08:21:57;;;;;;;11.57;5.75;;;;;;;17.53;100.00;101085.13;5029030;28;20049;-48
2023/10/11 08:24:27;;;;;;;10.85;5.30;;;;;;;17.93;100.00;101162.66;5016579;28;20481;-50
2023/10/11 08:26:54;;;;;;;7.10;5.20;;;;;;;17.89;100.00;101149.63;5015497;28;20049;-52
2023/10/11 08:29:28;;;;;;;9.25;5.72;;;;;;;18.02;100.00;101182.59;5027447;28;20095;-50
2023/10/11 08:31:58;;;;;;;12.07;5.80;;;;;;;17.96;100.00;101151.84;5012945;28;20036;-51
2023/10/11 08:34:27;;;;;;;13.15;6.00;;;;;;;18.07;100.00;101185.00;5012732;28;20030;-49
2023/10/11 08:36:56;;;;;;;14.35;5.95;;;;;;;18.09;100.00;101169.78;5046065;28;20029;-48
2023/10/11 08:39:42;;;;;;;10.52;5.95;;;;;;;18.12;100.00;101188.25;5013972;28;20055;-50
2023/10/11 08:42:16;;;;;;;12.73;5.72;;;;;;;18.16;100.00;101163.13;5012558;28;20452;-49
2023/10/11 08:44:46;;;;;;;14.15;5.63;;;;;;;18.02;100.00;101147.09;5012594;28;20045;-50
2023/10/11 08:47:16;;;;;;;10.15;5.03;;;;;;;17.69;100.00;101088.66;5029738;28;20048;-51
2023/10/11 08:49:48;;;;;;;13.13;5.35;;;;;;;17.63;100.00;101089.03;5048790;28;20046;-51
2023/10/11 08:52:25;;;;;;;11.55;5.85;;;;;;;17.82;100.00;101106.50;5031292;28;20124;-49
2023/10/11 08:54:51;;;;;;;11.55;5.78;;;;;;;17.67;100.00;101071.91;5032854;28;20476;-49
2023/10/11 08:57:23;;;;;;;12.63;5.15;;;;;;;17.78;100.00;101082.78;5030823;28;20101;-49
2023/10/11 08:59:56;;;;;;;11.25;5.53;;;;;;;18.26;100.00;101162.50;5032349;28;20037;-49
2023/10/11 09:02:24;;;;;;;9.80;5.50;;;;;;;17.94;100.00;101091.63;5048370;28;20425;-50
2023/10/11 09:05:00;;;;;;;8.55;5.32;;;;;;;18.27;100.00;101142.88;5032726;28;20036;-52
2023/10/11 09:07:44;;;;;;;9.55;5.68;;;;;;;18.07;100.00;101105.91;5032848;28;20396;-51
2023/10/11 09:10:23;;;;;;;13.13;5.65;;;;;;;18.40;100.00;101162.53;5064940;28;20416;-53
2023/10/11 09:12:49;;;;;;;14.15;6.07;;;;;;;18.03;100.00;101112.38;5033080;28;20507;-49
2023/10/11 09:15:15;;;;;;;11.18;6.25;;;;;;;18.06;100.00;101120.19;5031312;28;20108;-49
2023/10/11 09:17:40;;;;;;;10.80;5.75;;;;;;;18.47;100.00;101195.03;5048333;28;20040;-50
2023/10/11 09:20:23;;;;;;;13.82;6.55;;;;;;;18.17;100.00;101136.41;5033182;28;20046;-49
2023/10/11 09:22:52;;;;;;;10.75;5.35;;;;;;;18.60;100.00;101203.16;5046061;28;20040;-50
2023/10/11 09:25:22;;;;;;;10.80;5.15;;;;;;;18.46;100.00;101174.66;5030101;28;20068;-50
2023/10/11 09:27:50;;;;;;;10.25;5.03;;;;;;;18.65;100.00;101220.59;5032453;28;20193;-47
2023/10/11 09:30:20;;;;;;;14.05;5.60;;;;;;;18.70;100.00;101217.69;5032291;28;20099;-48
2023/10/11 09:32:49;;;;;;;9.55;4.53;;;;;;;18.30;100.00;101149.88;5031523;28;20037;-49
2023/10/11 09:35:28;;;;;;;7.65;4.88;;;;;;;18.78;100.00;101205.59;5030493;28;20129;-51
2023/10/11 09:37:58;;;;;;;17.83;6.60;;;;;;;18.89;100.00;101202.28;5032508;28;20091;-54
2023/10/11 09:40:35;;;;;;;12.95;5.60;;;;;;;18.60;100.00;101128.53;5032551;28;20048;-50
2023/10/11 09:43:01;;;;;;;9.15;5.50;;;;;;;18.94;100.00;101186.88;5031597;28;20029;-51
2023/10/11 09:45:41;;;;;;;11.38;5.93;;;;;;;18.90;100.00;101174.66;5047728;28;20091;-50
2023/10/11 09:48:09;;;;;;;13.63;6.03;;;;;;;19.03;100.00;101171.13;5031717;28;20554;-52
2023/10/11 09:50:40;;;;;;;12.38;6.05;;;;;;;18.95;100.00;101148.53;5036247;28;20507;-48
2023/10/11 09:53:10;;;;;;;15.63;5.60;;;;;;;19.37;100.00;101206.38;5031422;28;20037;-50
2023/10/11 09:55:36;;;;;;;15.60;6.55;;;;;;;19.43;100.00;101187.34;5047820;28;20041;-53
2023/10/11 09:58:30;;;;;;;11.88;5.93;;;;;;;19.23;100.00;101150.34;5028878;28;20080;-48
2023/10/11 10:01:08;;;;;;;11.98;5.90;;;;;;;19.85;100.00;101202.44;5007017;28;20467;-49
2023/10/11 10:03:38;;;;;;;10.07;5.18;;;;;;;20.02;100.00;101189.66;5006594;28;20088;-47
2023/10/11 10:06:21;;;;;;;9.18;4.80;;;;;;;20.19;100.00;101189.44;5027175;28;20050;-49
2023/10/11 10:12:11;;;;;;;10.77;4.97;;;;;;;20.82;100.00;101225.28;5010286;28;20153;-48
2023/10/11 10:14:36;;;;;;;6.50;3.58;;;;;;;20.64;100.00;101171.25;5010151;28;20041;-48
2023/10/11 10:17:12;;;;;;;9.23;3.85;;;;;;;20.66;100.00;101150.63;5008648;28;20026;-49
2023/10/11 10:19:39;;;;;;;10.15;3.88;;;;;;;20.74;100.00;101175.00;5010290;28;20092;-50
2023/10/11 10:22:15;;;;;;;10.45;5.13;;;;;;;20.94;100.00;101216.44;5010435;28;20033;-48
2023/10/11 10:24:43;;;;;;;7.70;4.00;;;;;;;21.07;100.00;101206.59;5010200;28;20092;-52
2023/10/11 10:27:33;;;;;;;4.32;3.30;;;;;;;21.40;100.00;101196.19;5009872;28;20125;-50
2023/10/11 10:29:59;;;;;;;9.85;4.82;;;;;;;21.31;100.00;101140.59;5009935;28;20412;-52
2023/10/11 10:32:25;;;;;;;9.10;4.13;;;;;;;21.78;100.00;101164.78;5010067;28;20514;-51
2023/10/11 10:35:23;;;;;;;7.28;3.83;;;;;;;22.08;100.00;101185.81;5008789;28;20033;-48
2023/10/11 10:37:56;;;;;;;7.32;3.70;;;;;;;21.72;100.00;101122.38;5008427;28;20125;-50
2023/10/11 10:40:26;;;;;;;5.80;3.55;;;;;;;21.92;100.00;101193.28;5025396;28;20050;-48
2023/10/11 10:43:23;;;;;;;10.50;3.85;;;;;;;21.55;100.00;101179.03;5009825;28;20033;-50
2023/10/11 10:45:50;;;;;;;8.60;3.85;;;;;;;21.27;100.00;101176.63;5009742;28;20128;-49
2023/10/11 10:48:23;;;;;;;6.80;3.40;;;;;;;21.22;100.00;101173.41;5025134;28;20064;-49
2023/10/11 10:51:07;;;;;;;6.50;4.03;;;;;;;21.12;100.00;101170.53;5009809;28;20544;-49
2023/10/11 10:53:41;;;;;;;11.90;3.70;;;;;;;20.71;100.00;101103.84;5008598;28;20080;-47
2023/10/11 10:56:22;;;;;;;9.93;3.55;;;;;;;20.64;100.00;101099.03;5009810;28;20062;-51
2023/10/11 10:58:47;;;;;;;7.03;3.40;;;;;;;20.85;100.00;101140.31;5009567;28;20026;-51
2023/10/11 11:01:13;;;;;;;7.68;3.60;;;;;;;20.92;100.00;101144.28;5024778;28;20620;-47
2023/10/11 11:03:41;;;;;;;5.93;3.22;;;;;;;20.45;100.00;101086.09;4999803;28;20034;-50
2023/10/11 11:06:11;;;;;;;9.60;4.13;;;;;;;20.92;100.00;101144.28;5006861;28;20304;-47
2023/10/11 11:08:39;;;;;;;8.27;3.57;;;;;;;20.70;100.00;101053.13;4992684;28;20038;-49
2023/10/11 11:13:50;;;;;;;8.02;3.72;;;;;;;23.02;100.00;101169.66;4994599;28;20096;-52
2023/10/11 11:16:20;;;;;;;8.70;3.38;;;;;;;23.21;100.00;101126.91;4994653;28;20545;-50
2023/10/11 11:18:46;;;;;;;9.02;3.97;;;;;;;23.27;100.00;101193.56;4993958;28;20045;-49
2023/10/11 11:21:22;;;;;;;9.55;3.78;;;;;;;23.13;100.00;101181.25;5009037;28;20042;-50
2023/10/11 11:23:50;;;;;;;10.23;4.10;;;;;;;22.68;100.00;101179.50;4993995;28;20070;-51
2023/10/11 11:26:17;;;;;;;11.25;3.28;;;;;;;22.41;100.00;101151.09;4992418;28;20064;-52
2023/10/11 11:28:46;;;;;;;9.77;3.50;;;;;;;22.48;100.00;101178.28;5009012;28;20045;-52
2023/10/11 11:31:30;;;;;;;8.77;3.45;;;;;;;22.48;100.00;101166.69;5009071;28;20247;-50
2023/10/11 11:34:12;;;;;;;7.65;3.72;;;;;;;22.53;100.00;101167.22;4993815;28;20038;-49
2023/10/11 11:36:42;;;;;;;8.65;3.70;;;;;;;22.39;100.00;101178.97;4993625;28;20125;-51
2023/10/11 11:39:25;;;;;;;6.82;3.20;;;;;;;21.73;100.00;101128.59;4993811;28;20055;-50
2023/10/11 11:41:54;;;;;;;11.52;3.65;;;;;;;21.43;100.00;101137.06;4993958;28;20041;-50
2023/10/11 11:44:23;;;;;;;8.45;3.63;;;;;;;21.53;100.00;101178.28;5008256;28;20109;-52
2023/10/11 11:46:50;;;;;;;9.23;4.18;;;;;;;21.40;100.00;101179.25;4992463;28;20034;-47
2023/10/11 11:49:20;;;;;;;9.88;4.35;;;;;;;21.02;100.00;101118.56;4993141;28;20528;-51
2023/10/11 11:51:46;;;;;;;7.23;3.33;;;;;;;21.19;100.00;101158.41;4993283;28;20318;-51
2023/10/11 11:54:17;;;;;;;10.73;3.75;;;;;;;20.91;100.00;101102.44;4993472;28;20285;-52
2023/10/11 11:56:43;;;;;;;8.98;3.65;;;;;;;21.30;100.00;101134.44;4993328;28;20046;-50
2023/10/11 11:59:17;;;;;;;9.30;3.58;;;;;;;21.35;100.00;101111.78;4993136;28;20057;-50
2023/10/11 12:01:49;;;;;;;8.18;3.95;;;;;;;21.64;100.00;101182.84;4992008;28;20129;-49
2023/10/11 12:04:24;;;;;;;11.25;3.90;;;;;;;21.55;100.00;101157.59;4992930;28;20126;-48
2023/10/11 12:06:50;;;;;;;10.32;3.80;;;;;;;20.96;100.00;101053.91;4992880;28;20563;-52
2023/10/11 12:09:21;;;;;;;10.25;3.75;;;;;;;21.57;100.00;101155.66;4992889;28;20122;-48
2023/10/11 12:11:53;;;;;;;7.78;3.53;;;;;;;21.07;100.00;101089.66;4991396;28;20258;-48
2023/10/11 12:14:22;;;;;;;8.75;3.35;;;;;;;21.36;100.00;101154.53;4992932;28;20070;-49
2023/10/11 12:16:48;;;;;;;13.18;3.80;;;;;;;21.07;100.00;101097.69;4992340;28;20035;-49
2023/10/11 12:19:14;;;;;;;11.15;4.35;;;;;;;21.60;100.00;101157.28;4991541;28;20452;-48
2023/10/11 12:21:40;;;;;;;9.40;4.57;;;;;;;21.66;100.00;101144.25;4991755;28;20116;-50